createdAt,value
2019-02-14T00:00:26.768Z,81.57
2019-02-14T00:02:55.759Z,81.62
2019-02-14T00:05:22.915Z,81.21
2019-02-14T00:07:49.991Z,81.00
2019-02-14T00:10:17.643Z,80.66
2019-02-14T00:12:46.494Z,80.07
2019-02-14T00:15:13.560Z,80.08
2019-02-14T00:17:40.959Z,80.55
2019-02-14T00:20:08.562Z,79.75
2019-02-14T00:22:36.139Z,79.16
2019-02-14T00:25:04.430Z,79.37
2019-02-14T00:27:31.569Z,79.23
2019-02-14T00:29:58.635Z,80.18
2019-02-14T00:32:26.120Z,79.09
2019-02-14T00:34:53.228Z,79.59
2019-02-14T00:37:20.287Z,79.56
2019-02-14T00:39:47.806Z,79.70
2019-02-14T00:42:14.866Z,79.29
2019-02-14T00:44:41.928Z,79.20
2019-02-14T00:47:11.919Z,79.24
2019-02-14T00:49:38.966Z,79.74
2019-02-14T00:52:06.353Z,79.33
2019-02-14T00:54:33.747Z,79.61
2019-02-14T00:57:00.816Z,78.78
2019-02-14T00:59:27.880Z,79.45
2019-02-14T01:01:56.173Z,79.52
2019-02-14T01:04:23.359Z,79.16
2019-02-14T01:06:50.943Z,78.59
2019-02-14T01:09:19.766Z,79.37
2019-02-14T01:11:47.090Z,80.01
2019-02-14T01:14:15.132Z,79.61
2019-02-14T01:16:42.549Z,79.90
2019-02-14T01:19:10.588Z,79.18
2019-02-14T01:21:37.619Z,80.19
2019-02-14T01:24:04.727Z,79.92
2019-02-14T01:26:31.780Z,80.31
2019-02-14T01:28:58.862Z,80.30
2019-02-14T01:31:25.906Z,80.12
2019-02-14T01:33:52.970Z,80.03
2019-02-14T01:36:20.123Z,80.09
2019-02-14T01:38:47.181Z,80.60
2019-02-14T01:41:14.673Z,80.87
2019-02-14T01:43:41.734Z,80.89
2019-02-14T01:46:08.769Z,80.53
2019-02-14T01:48:37.637Z,80.50
2019-02-14T01:51:05.822Z,80.58
2019-02-14T01:53:32.959Z,80.84
2019-02-14T01:56:00.141Z,80.35
2019-02-14T01:58:28.301Z,79.73
2019-02-14T02:00:55.339Z,79.37
2019-02-14T02:03:22.593Z,79.79
2019-02-14T02:05:50.985Z,80.45
2019-02-14T02:08:19.412Z,80.53
2019-02-14T02:10:47.120Z,80.96
2019-02-14T02:13:14.184Z,81.32
2019-02-14T02:15:41.267Z,81.27
2019-02-14T02:18:08.452Z,80.91
2019-02-14T02:20:36.183Z,80.73
2019-02-14T02:23:03.339Z,80.46
2019-02-14T02:25:30.515Z,80.40
2019-02-14T02:27:57.938Z,80.95
2019-02-14T02:30:25.395Z,79.70
2019-02-14T02:32:53.161Z,79.49
2019-02-14T02:35:20.821Z,79.90
2019-02-14T02:37:47.978Z,80.62
2019-02-14T02:40:15.395Z,79.95
2019-02-14T02:42:42.454Z,79.24
2019-02-14T02:45:11.369Z,79.34
2019-02-14T02:47:38.462Z,79.23
2019-02-14T02:50:07.850Z,79.32
2019-02-14T02:52:36.925Z,78.71
2019-02-14T02:55:04.411Z,79.09
2019-02-14T02:57:32.235Z,79.59
2019-02-14T02:59:59.329Z,80.12
2019-02-14T03:02:26.633Z,79.31
2019-02-14T03:04:54.134Z,79.15
2019-02-14T03:07:21.545Z,79.70
2019-02-14T03:09:48.575Z,79.63
2019-02-14T03:12:17.693Z,79.32
2019-02-14T03:14:44.717Z,79.20
2019-02-14T03:17:12.162Z,79.52
2019-02-14T03:19:39.193Z,79.24
2019-02-14T03:22:06.269Z,79.98
2019-02-14T03:24:33.317Z,79.71
2019-02-14T03:27:00.373Z,79.83
2019-02-14T03:29:27.393Z,80.07
2019-02-14T03:31:54.511Z,80.25
2019-02-14T03:34:21.537Z,79.64
2019-02-14T03:36:50.425Z,79.10
2019-02-14T03:39:17.444Z,79.58
2019-02-14T03:41:45.564Z,79.57
2019-02-14T03:44:12.601Z,78.43
2019-02-14T03:46:39.842Z,78.31
2019-02-14T03:49:07.936Z,78.60
2019-02-14T03:51:35.024Z,80.39
2019-02-14T03:54:02.434Z,79.53
2019-02-14T03:56:29.533Z,79.18
2019-02-14T03:58:56.590Z,80.06
2019-02-14T04:01:23.658Z,79.59
2019-02-14T04:03:50.738Z,79.86
2019-02-14T04:06:17.825Z,80.17
2019-02-14T04:08:44.885Z,79.93
2019-02-14T04:11:12.057Z,80.39
2019-02-14T04:13:39.671Z,79.56
2019-02-14T04:16:06.750Z,80.29
2019-02-14T04:18:33.874Z,79.93
2019-02-14T04:21:01.264Z,79.96
2019-02-14T04:23:28.761Z,80.75
2019-02-14T04:25:56.214Z,80.65
2019-02-14T04:28:23.369Z,80.80
2019-02-14T04:30:50.432Z,81.31
2019-02-14T04:33:18.233Z,80.43
2019-02-14T04:35:46.201Z,79.82
2019-02-14T04:38:13.967Z,79.57
2019-02-14T04:40:42.404Z,80.26
2019-02-14T04:43:10.111Z,81.44
2019-02-14T04:45:37.769Z,81.15
2019-02-14T04:48:05.946Z,81.49
2019-02-14T04:50:33.603Z,81.56
2019-02-14T04:53:01.683Z,82.38
2019-02-14T04:55:30.978Z,83.11
2019-02-14T04:57:58.361Z,82.69
2019-02-14T05:00:25.991Z,83.49
2019-02-14T05:02:53.474Z,83.25
2019-02-14T05:05:21.109Z,82.77
2019-02-14T05:07:49.183Z,83.93
2019-02-14T05:10:16.842Z,83.54
2019-02-14T05:12:44.915Z,82.33
2019-02-14T05:15:12.678Z,83.00
2019-02-14T05:17:40.031Z,82.75
2019-02-14T05:20:07.987Z,83.23
2019-02-14T05:22:36.586Z,83.49
2019-02-14T05:25:04.340Z,83.49
2019-02-14T05:27:31.537Z,83.10
2019-02-14T05:29:58.621Z,83.61
2019-02-14T05:32:25.743Z,84.38
2019-02-14T05:34:52.923Z,83.77
2019-02-14T05:37:21.061Z,84.13
2019-02-14T05:39:48.171Z,83.10
2019-02-14T05:42:15.341Z,82.11
2019-02-14T05:44:42.796Z,82.48
2019-02-14T05:47:09.969Z,83.53
2019-02-14T05:49:37.301Z,82.39
2019-02-14T05:52:04.480Z,82.74
2019-02-14T05:54:32.622Z,82.50
2019-02-14T05:56:59.802Z,81.54
2019-02-14T05:59:27.247Z,81.97
2019-02-14T06:01:56.100Z,82.83
2019-02-14T06:04:25.182Z,82.07
2019-02-14T06:06:52.307Z,82.51
2019-02-14T06:09:19.389Z,81.43
2019-02-14T06:11:46.576Z,81.09
2019-02-14T06:14:13.997Z,80.71
2019-02-14T06:16:42.481Z,81.79
2019-02-14T06:19:10.855Z,82.93
2019-02-14T06:21:37.928Z,82.43
2019-02-14T06:24:05.131Z,81.50
2019-02-14T06:26:32.560Z,81.03
2019-02-14T06:28:59.912Z,82.15
2019-02-14T06:31:26.991Z,81.87
2019-02-14T06:33:54.879Z,81.70
2019-02-14T06:36:22.544Z,82.17
2019-02-14T06:38:50.504Z,81.56
2019-02-14T06:41:18.587Z,81.58
2019-02-14T06:43:47.788Z,81.78
2019-02-14T06:46:15.541Z,81.34
2019-02-14T06:48:44.074Z,83.20
2019-02-14T06:51:11.609Z,83.68
2019-02-14T06:53:39.345Z,83.50
2019-02-14T06:56:06.951Z,83.02
2019-02-14T06:58:34.035Z,82.56
2019-02-14T07:01:01.234Z,82.00
2019-02-14T07:03:28.474Z,81.06
2019-02-14T07:05:56.046Z,81.10
2019-02-14T07:08:23.433Z,81.07
2019-02-14T07:10:51.079Z,81.20
2019-02-14T07:13:18.142Z,80.68
2019-02-14T07:15:45.539Z,81.37
2019-02-14T07:18:12.727Z,81.16
2019-02-14T07:20:40.189Z,81.49
2019-02-14T07:23:07.262Z,81.76
2019-02-14T07:25:34.484Z,81.41
2019-02-14T07:28:01.852Z,82.17
2019-02-14T07:30:29.974Z,83.01
2019-02-14T07:32:58.193Z,83.83
2019-02-14T07:35:25.371Z,82.88
2019-02-14T07:37:52.432Z,82.61
2019-02-14T07:40:19.737Z,82.78
2019-02-14T07:42:47.202Z,82.06
2019-02-14T07:45:14.304Z,81.68
2019-02-14T07:47:41.390Z,81.81
2019-02-14T07:50:09.539Z,82.97
2019-02-14T07:52:36.722Z,82.86
2019-02-14T07:55:05.128Z,82.36
2019-02-14T07:57:33.444Z,82.12
2019-02-14T08:00:00.566Z,82.33
2019-02-14T08:02:27.599Z,82.24
2019-02-14T08:04:55.017Z,82.99
2019-02-14T08:07:22.377Z,83.83
2019-02-14T08:09:49.470Z,82.86
2019-02-14T08:12:17.632Z,83.11
2019-02-14T08:14:44.949Z,83.18
2019-02-14T08:17:12.182Z,83.43
2019-02-14T08:19:39.275Z,83.53
2019-02-14T08:22:06.691Z,83.87
2019-02-14T08:24:34.635Z,83.97
2019-02-14T08:27:03.015Z,82.74
2019-02-14T08:29:30.405Z,81.99
2019-02-14T08:31:57.510Z,82.60
2019-02-14T08:34:25.894Z,82.41
2019-02-14T08:36:54.230Z,81.62
2019-02-14T08:39:23.674Z,82.76
2019-02-14T08:41:55.333Z,83.36
2019-02-14T08:44:22.766Z,82.87
2019-02-14T08:46:50.556Z,82.56
2019-02-14T08:49:18.931Z,81.37
2019-02-14T08:51:50.679Z,81.48
2019-02-14T08:54:18.176Z,82.38
2019-02-14T08:56:46.624Z,82.23
2019-02-14T08:59:14.386Z,82.14
2019-02-14T09:01:42.045Z,82.15
2019-02-14T09:04:13.432Z,81.79
2019-02-14T09:06:41.877Z,82.01
2019-02-14T09:09:08.962Z,82.14
2019-02-14T09:11:36.903Z,82.89
2019-02-14T09:14:05.720Z,83.06
2019-02-14T09:16:33.139Z,83.09
2019-02-14T09:19:00.598Z,82.52
2019-02-14T09:21:28.473Z,82.56
2019-02-14T09:23:56.227Z,81.82
2019-02-14T09:26:24.194Z,81.87
2019-02-14T09:28:52.774Z,82.12
2019-02-14T09:31:20.647Z,81.73
2019-02-14T09:33:48.352Z,80.91
2019-02-14T09:36:19.713Z,79.98
2019-02-14T09:38:47.110Z,80.81
2019-02-14T09:41:14.217Z,80.68
2019-02-14T09:43:42.708Z,80.35
2019-02-14T09:46:10.511Z,79.66
2019-02-14T09:48:38.031Z,79.86
2019-02-14T09:51:06.156Z,79.69
2019-02-14T09:53:36.462Z,79.36
2019-02-14T09:56:03.978Z,78.98
2019-02-14T09:58:31.784Z,78.80
2019-02-14T10:00:59.550Z,79.09
2019-02-14T10:03:27.767Z,78.73
2019-02-14T10:05:54.824Z,79.39
2019-02-14T10:08:24.994Z,79.49
2019-02-14T10:10:52.208Z,78.45
2019-02-14T10:13:20.212Z,77.33
2019-02-14T10:15:49.207Z,77.72
2019-02-14T10:18:17.994Z,78.33
2019-02-14T10:20:45.964Z,78.05
2019-02-14T10:23:13.163Z,78.10
2019-02-14T10:25:41.335Z,78.35
2019-02-14T10:28:09.045Z,78.06
2019-02-14T10:30:36.235Z,78.28
2019-02-14T10:33:03.678Z,78.55
2019-02-14T10:35:30.890Z,78.67
2019-02-14T10:37:59.235Z,77.77
2019-02-14T10:40:26.830Z,78.22
2019-02-14T10:42:54.402Z,78.17
2019-02-14T10:45:21.603Z,78.83
2019-02-14T10:47:49.423Z,77.93
2019-02-14T10:50:17.080Z,76.72
2019-02-14T10:52:44.770Z,76.83
2019-02-14T10:55:13.015Z,76.92
2019-02-14T10:57:40.199Z,75.32
2019-02-14T11:00:16.392Z,74.10
2019-02-14T11:02:44.295Z,73.92
2019-02-14T11:05:13.827Z,73.46
2019-02-14T11:07:41.254Z,72.55
2019-02-14T11:10:09.838Z,73.34
2019-02-14T11:12:37.299Z,73.46
2019-02-14T11:15:09.046Z,72.67
2019-02-14T11:17:36.096Z,71.36
2019-02-14T11:20:03.656Z,70.39
2019-02-14T11:22:31.792Z,70.11
2019-02-14T11:24:59.707Z,69.32
2019-02-14T11:27:27.206Z,69.39
2019-02-14T11:29:55.947Z,69.46
2019-02-14T11:32:23.408Z,68.73
2019-02-14T11:34:52.912Z,68.47
2019-02-14T11:37:20.672Z,68.17
2019-02-14T11:39:48.575Z,67.35
2019-02-14T11:42:18.047Z,67.15
2019-02-14T11:44:45.581Z,66.98
2019-02-14T11:47:13.371Z,66.76
2019-02-14T11:49:41.235Z,67.34
2019-02-14T11:52:09.101Z,67.07
2019-02-14T11:54:36.168Z,66.86
2019-02-14T11:57:07.655Z,68.02
2019-02-14T11:59:34.718Z,68.69
2019-02-14T12:02:02.611Z,68.82
2019-02-14T12:04:29.684Z,68.50
2019-02-14T12:06:57.121Z,67.67
2019-02-14T12:09:24.182Z,67.66
2019-02-14T12:11:51.931Z,67.59
2019-02-14T12:14:19.389Z,67.26
2019-02-14T12:16:47.564Z,67.47
2019-02-14T12:19:14.960Z,67.12
2019-02-14T12:21:42.673Z,65.90
2019-02-14T12:24:10.337Z,66.43
2019-02-14T12:26:38.411Z,66.23
2019-02-14T12:29:05.809Z,66.00
2019-02-14T12:31:32.904Z,66.00
2019-02-14T12:34:00.000Z,65.81
2019-02-14T12:36:27.530Z,64.86
2019-02-14T12:38:55.322Z,64.84
2019-02-14T12:41:23.052Z,64.86
2019-02-14T12:43:51.145Z,64.69
2019-02-14T12:46:20.315Z,64.37
2019-02-14T12:48:47.371Z,64.37
2019-02-14T12:51:14.455Z,64.00
2019-02-14T12:53:41.514Z,64.46
2019-02-14T12:56:08.675Z,64.81
2019-02-14T12:58:36.839Z,64.64
2019-02-14T13:01:05.650Z,64.59
2019-02-14T13:03:33.831Z,63.30
2019-02-14T13:06:02.241Z,63.30
2019-02-14T13:08:29.411Z,64.16
2019-02-14T13:10:56.503Z,63.35
2019-02-14T13:13:24.946Z,62.38
2019-02-14T13:15:53.829Z,63.42
2019-02-14T13:18:21.940Z,62.47
2019-02-14T13:20:52.865Z,62.47
2019-02-14T13:23:20.214Z,62.14
2019-02-14T13:25:47.252Z,61.02
2019-02-14T13:28:16.747Z,60.02
2019-02-14T13:30:44.160Z,56.40
2019-02-14T13:33:11.620Z,56.40
2019-02-14T13:35:38.706Z,55.37
2019-02-14T13:38:05.770Z,53.88
2019-02-14T13:40:33.117Z,49.82
2019-02-14T13:43:01.058Z,51.35
2019-02-14T13:45:29.576Z,50.90
2019-02-14T13:47:56.631Z,52.90
2019-02-14T13:50:23.714Z,54.16
2019-02-14T13:52:51.128Z,55.15
2019-02-14T13:55:18.177Z,55.49
2019-02-14T13:57:47.460Z,56.28
2019-02-14T14:00:17.329Z,58.91
2019-02-14T14:02:44.378Z,59.81
2019-02-14T14:05:12.353Z,59.45
2019-02-14T14:07:41.860Z,59.05
2019-02-14T14:10:08.979Z,58.42
2019-02-14T14:12:37.594Z,57.20
2019-02-14T14:15:05.304Z,57.76
2019-02-14T14:17:32.856Z,57.67
2019-02-14T14:20:00.808Z,60.23
2019-02-14T14:22:28.275Z,58.72
2019-02-14T14:24:55.390Z,56.78
2019-02-14T14:27:22.510Z,57.55
2019-02-14T14:29:49.632Z,57.55
2019-02-14T14:32:16.714Z,56.15
2019-02-14T14:34:44.389Z,53.72
2019-02-14T14:37:12.153Z,52.39
2019-02-14T14:39:46.031Z,54.21
2019-02-14T14:42:12.223Z,54.69
2019-02-14T14:44:48.523Z,55.15
2019-02-14T14:47:18.137Z,55.94
2019-02-14T14:49:45.600Z,57.08
2019-02-14T14:52:13.385Z,57.03
2019-02-14T14:54:41.762Z,56.46
2019-02-14T14:57:09.636Z,56.45
2019-02-14T14:59:37.160Z,59.63
2019-02-14T15:02:04.623Z,59.63
2019-02-14T15:04:31.742Z,60.32
2019-02-14T15:06:58.866Z,60.81
2019-02-14T15:09:26.262Z,61.64
2019-02-14T15:11:53.338Z,61.64
2019-02-14T15:14:20.439Z,60.39
2019-02-14T15:16:47.586Z,61.31
2019-02-14T15:19:15.714Z,61.31
2019-02-14T15:21:42.803Z,61.34
2019-02-14T15:24:09.973Z,62.00
2019-02-14T15:26:38.250Z,62.48
2019-02-14T15:29:05.378Z,60.75
2019-02-14T15:31:32.551Z,59.82
2019-02-14T15:33:59.919Z,58.81
2019-02-14T15:36:29.068Z,58.81
2019-02-14T15:38:56.751Z,60.10
2019-02-14T15:41:23.836Z,60.10
2019-02-14T15:43:51.311Z,61.73
2019-02-14T15:46:20.228Z,63.80
2019-02-14T15:48:47.971Z,63.80
2019-02-14T15:51:17.824Z,64.71
2019-02-14T15:53:46.240Z,66.11
2019-02-14T15:56:13.555Z,66.29
2019-02-14T15:58:41.476Z,66.46
2019-02-14T16:01:10.559Z,67.37
2019-02-14T16:03:40.134Z,68.24
2019-02-14T16:06:08.242Z,69.38
2019-02-14T16:08:36.016Z,69.84
2019-02-14T16:11:03.367Z,69.69
2019-02-14T16:13:33.527Z,69.93
2019-02-14T16:16:01.863Z,71.44
2019-02-14T16:18:29.876Z,71.70
2019-02-14T16:20:57.075Z,72.19
2019-02-14T16:23:24.469Z,72.00
2019-02-14T16:25:54.059Z,72.76
2019-02-14T16:28:22.944Z,73.08
2019-02-14T16:30:50.003Z,73.76
2019-02-14T16:33:17.755Z,74.16
2019-02-14T16:35:45.216Z,74.06
2019-02-14T16:38:13.931Z,74.48
2019-02-14T16:40:42.498Z,74.82
2019-02-14T16:43:09.994Z,74.93
2019-02-14T16:45:37.698Z,74.94
2019-02-14T16:48:05.045Z,75.80
2019-02-14T16:50:32.815Z,75.36
2019-02-14T16:52:59.866Z,75.25
2019-02-14T16:55:27.123Z,74.75
2019-02-14T16:57:56.455Z,75.34
2019-02-14T17:00:23.554Z,74.97
2019-02-14T17:02:50.653Z,75.61
2019-02-14T17:05:17.764Z,75.81
2019-02-14T17:07:44.861Z,75.18
2019-02-14T17:10:12.355Z,75.87
2019-02-14T17:12:39.971Z,75.63
2019-02-14T17:15:08.192Z,75.98
2019-02-14T17:17:35.328Z,76.34
2019-02-14T17:20:02.602Z,76.22
2019-02-14T17:22:30.091Z,75.94
2019-02-14T17:24:57.546Z,75.70
2019-02-14T17:27:25.298Z,76.22
2019-02-14T17:29:52.474Z,76.35
2019-02-14T17:32:19.554Z,76.58
2019-02-14T17:34:47.184Z,76.37
2019-02-14T17:37:16.236Z,77.00
2019-02-14T17:39:44.187Z,77.17
2019-02-14T17:42:11.305Z,77.39
2019-02-14T17:44:38.739Z,76.97
2019-02-14T17:47:06.210Z,77.14
2019-02-14T17:49:34.488Z,77.78
2019-02-14T17:52:01.910Z,77.82
2019-02-14T17:54:29.370Z,77.17
2019-02-14T17:56:57.117Z,77.82
2019-02-14T17:59:25.199Z,78.68
2019-02-14T18:01:52.852Z,78.48
2019-02-14T18:04:19.911Z,78.39
2019-02-14T18:06:46.998Z,78.47
2019-02-14T18:09:14.180Z,78.75
2019-02-14T18:11:41.548Z,78.33
2019-02-14T18:14:08.661Z,78.01
2019-02-14T18:16:35.731Z,78.89
2019-02-14T18:19:06.051Z,78.45
2019-02-14T18:21:33.189Z,78.01
2019-02-14T18:24:00.914Z,78.78
2019-02-14T18:26:30.085Z,78.74
2019-02-14T18:28:57.163Z,78.46
2019-02-14T18:31:24.267Z,78.90
2019-02-14T18:33:51.370Z,79.28
2019-02-14T18:36:20.935Z,79.30
2019-02-14T18:38:49.218Z,79.22
2019-02-14T18:41:17.315Z,79.69
2019-02-14T18:43:44.412Z,79.51
2019-02-14T18:46:12.477Z,79.21
2019-02-14T18:48:40.687Z,79.62
2019-02-14T18:51:08.189Z,79.81
2019-02-14T18:53:35.294Z,79.84
2019-02-14T18:56:03.043Z,79.08
2019-02-14T18:58:30.518Z,79.83
2019-02-14T19:00:59.402Z,80.63
2019-02-14T19:03:26.480Z,80.24
2019-02-14T19:05:54.649Z,80.14
2019-02-14T19:08:22.791Z,80.19
2019-02-14T19:10:51.575Z,80.32
2019-02-14T19:13:19.738Z,80.34
2019-02-14T19:15:47.335Z,80.21
2019-02-14T19:18:14.626Z,80.69
2019-02-14T19:20:41.699Z,80.47
2019-02-14T19:23:08.767Z,80.59
2019-02-14T19:25:36.314Z,80.94
2019-02-14T19:28:03.440Z,81.14
2019-02-14T19:30:30.485Z,81.14
2019-02-14T19:32:57.928Z,81.31
2019-02-14T19:35:24.986Z,81.38
2019-02-14T19:37:52.078Z,81.38
2019-02-14T19:40:20.002Z,80.90
2019-02-14T19:42:49.131Z,81.44
2019-02-14T19:45:16.225Z,81.47
2019-02-14T19:47:43.811Z,81.29
2019-02-14T19:50:10.953Z,80.94
2019-02-14T19:52:38.046Z,81.81
2019-02-14T19:55:07.150Z,81.59
2019-02-14T19:57:34.519Z,81.02
2019-02-14T20:00:01.918Z,80.63
2019-02-14T20:02:30.534Z,80.87
2019-02-14T20:04:58.794Z,81.79
2019-02-14T20:07:26.316Z,81.38
2019-02-14T20:09:53.384Z,81.14
2019-02-14T20:12:22.603Z,81.20
2019-02-14T20:14:49.865Z,80.82
2019-02-14T20:17:17.371Z,81.63
2019-02-14T20:19:46.297Z,82.09
2019-02-14T20:22:14.431Z,81.80
2019-02-14T20:24:41.838Z,81.43
2019-02-14T20:27:09.282Z,81.25
2019-02-14T20:29:37.607Z,81.99
2019-02-14T20:32:05.710Z,82.12
2019-02-14T20:34:32.844Z,82.11
2019-02-14T20:37:01.765Z,82.10
2019-02-14T20:39:29.304Z,81.96
2019-02-14T20:41:56.722Z,81.71
2019-02-14T20:44:24.780Z,81.41
2019-02-14T20:46:52.523Z,81.57
2019-02-14T20:49:19.822Z,81.63
2019-02-14T20:51:47.057Z,81.26
2019-02-14T20:54:14.593Z,81.41
2019-02-14T20:56:41.766Z,81.45
2019-02-14T20:59:09.504Z,81.65
2019-02-14T21:01:37.892Z,81.77
2019-02-14T21:04:06.304Z,82.15
2019-02-14T21:06:35.520Z,81.61
2019-02-14T21:09:04.179Z,81.54
2019-02-14T21:11:33.253Z,82.09
2019-02-14T21:14:00.531Z,82.12
2019-02-14T21:16:28.083Z,81.69
2019-02-14T21:18:55.165Z,81.67
2019-02-14T21:21:22.291Z,82.08
2019-02-14T21:23:50.312Z,82.38
2019-02-14T21:26:17.680Z,82.04
2019-02-14T21:28:44.743Z,82.40
2019-02-14T21:31:11.787Z,82.82
2019-02-14T21:33:39.552Z,82.78
2019-02-14T21:36:07.592Z,82.32
2019-02-14T21:38:36.310Z,82.17
2019-02-14T21:41:04.262Z,82.26
2019-02-14T21:43:32.031Z,82.86
2019-02-14T21:45:59.468Z,83.21
2019-02-14T21:48:26.620Z,83.23
2019-02-14T21:50:54.125Z,83.30
2019-02-14T21:53:23.597Z,83.53
2019-02-14T21:55:51.513Z,83.55
2019-02-14T21:58:19.263Z,82.95
2019-02-14T22:00:46.814Z,83.25
2019-02-14T22:03:16.719Z,83.71
2019-02-14T22:05:44.984Z,83.42
2019-02-14T22:08:12.663Z,83.13
2019-02-14T22:10:40.182Z,82.73
2019-02-14T22:13:07.417Z,82.56
2019-02-14T22:15:34.562Z,83.88
2019-02-14T22:18:02.678Z,83.75
2019-02-14T22:20:29.854Z,83.14
2019-02-14T22:22:56.944Z,84.01
2019-02-14T22:25:24.721Z,83.34
2019-02-14T22:27:53.335Z,83.45
2019-02-14T22:30:20.419Z,83.34
2019-02-14T22:32:48.119Z,83.58
2019-02-14T22:35:15.232Z,83.25
2019-02-14T22:37:42.930Z,83.85
2019-02-14T22:40:10.167Z,83.84
2019-02-14T22:42:46.233Z,84.54
2019-02-14T22:45:06.852Z,84.60
2019-02-14T22:47:34.703Z,84.32
2019-02-14T22:50:02.166Z,84.22
2019-02-14T22:52:31.074Z,84.36
2019-02-14T22:54:59.118Z,84.49
2019-02-14T22:57:26.889Z,84.53
2019-02-14T22:59:55.161Z,85.12
2019-02-14T23:02:22.359Z,84.61
2019-02-14T23:04:50.108Z,84.40
2019-02-14T23:07:18.963Z,85.26
2019-02-14T23:09:47.031Z,84.41
2019-02-14T23:12:14.515Z,84.35
2019-02-14T23:14:42.167Z,85.01
2019-02-14T23:17:09.832Z,85.09
2019-02-14T23:19:37.578Z,85.12
2019-02-14T23:22:05.386Z,84.91
2019-02-14T23:24:32.788Z,84.10
2019-02-14T23:27:00.563Z,84.18
2019-02-14T23:29:27.630Z,84.57
2019-02-14T23:31:54.987Z,84.62
2019-02-14T23:34:22.141Z,85.22
2019-02-14T23:36:49.410Z,85.16
2019-02-14T23:39:16.607Z,84.95
2019-02-14T23:41:44.993Z,84.94
2019-02-14T23:44:12.056Z,85.22
2019-02-14T23:46:39.454Z,85.35
2019-02-14T23:49:07.262Z,85.62
2019-02-14T23:51:34.338Z,85.48
2019-02-14T23:54:01.751Z,85.80
2019-02-14T23:56:29.177Z,85.89
2019-02-14T23:58:56.581Z,85.36
